Terminal Aerodrome Forecast
Issued by NWS

Home | Current Version | Previous Version | Text Only | Print | Product List | Glossary On
Versions: 1 2 3 4 5 6 7 8 9 10 11 12 13 14 15 16 17 18 19 20 21 22 23 24 25 26 27
000
FTUS46 KMFR 211535 AAB
TAFRBG
TAF AMD
KRBG 211535Z 2116/2212 00000KT P6SM FEW003 BKN090 WS020/20040KT
     FM211800 17004KT P6SM SCT035 BKN060 OVC090 WS020/18045KT
     FM220600 19005KT 4SM -RA BR OVC050
     FM221000 18002KT 3SM -RA BR OVC050
     FM221100 21001KT 1/2SM FG OVC003=

USA.gov is the U.S. government's official web portal to all federal, state and local government web resources and services.